Brisben, New York
Current Conditions -  °F | °C
As of 11:08 AM on Thursday 27 Nov 2014 (Local Time) from KBGM Reporting Station
Light Snow Light Snow  
Wind Chill: 19°   Ceiling: 800
Heat Index: 27°   Visibility: 3mi
Dew Point: 24°   Wind: 8mph
Humidity: 89%   Direction: 280°W
Pressure: 29.96"   Gusts: NA
Location:  42.4446°N, 75.6311°W
Report Text: KBGM 271608Z 28007KT 3SM -SN BR OVC008 M03/M04 A2996 RMK AO2 CIG 005V011 P0000 T10281044 $
Loading
Personal Weather Stations






























Interactive Weather Map New forecast layout! Learn more

10-Day Weather Forecast

Advertisements
Track Severe Weather on mobile